sensor_id;sensor_type;location;lat;lon;timestamp;P1;durP1;ratioP1;P2;durP2;ratioP2
21034;SDS011;10676;50.848;3.272;2023-02-28T00:00:24;1999.90;;;999.90;;
21034;SDS011;10676;50.848;3.272;2023-02-28T00:02:50;1999.90;;;999.90;;
21034;SDS011;10676;50.848;3.272;2023-02-28T00:05:16;1999.90;;;999.90;;
21034;SDS011;10676;50.848;3.272;2023-02-28T00:07:44;1999.90;;;999.90;;
21034;SDS011;10676;50.848;3.272;2023-02-28T00:10:12;1999.90;;;999.90;;
21034;SDS011;10676;50.848;3.272;2023-02-28T00:12:39;1999.90;;;999.90;;
21034;SDS011;10676;50.848;3.272;2023-02-28T00:15:05;1999.90;;;999.90;;
21034;SDS011;10676;50.848;3.272;2023-02-28T00:17:32;1999.90;;;999.90;;
21034;SDS011;10676;50.848;3.272;2023-02-28T00:19:58;1999.90;;;999.90;;
21034;SDS011;10676;50.848;3.272;2023-02-28T00:22:37;1999.90;;;999.90;;
21034;SDS011;10676;50.848;3.272;2023-02-28T00:25:04;1999.90;;;999.90;;
21034;SDS011;10676;50.848;3.272;2023-02-28T00:27:31;1999.90;;;999.90;;
21034;SDS011;10676;50.848;3.272;2023-02-28T00:29:57;1999.90;;;999.90;;
21034;SDS011;10676;50.848;3.272;2023-02-28T00:32:23;1999.90;;;999.90;;
21034;SDS011;10676;50.848;3.272;2023-02-28T00:34:49;1999.90;;;999.90;;
21034;SDS011;10676;50.848;3.272;2023-02-28T00:37:15;1999.90;;;999.90;;
21034;SDS011;10676;50.848;3.272;2023-02-28T00:39:40;1999.90;;;999.90;;
21034;SDS011;10676;50.848;3.272;2023-02-28T00:42:06;1999.90;;;999.90;;
21034;SDS011;10676;50.848;3.272;2023-02-28T00:44:32;1999.90;;;999.90;;
21034;SDS011;10676;50.848;3.272;2023-02-28T00:46:59;1999.90;;;999.90;;
21034;SDS011;10676;50.848;3.272;2023-02-28T00:49:25;1999.90;;;999.90;;
21034;SDS011;10676;50.848;3.272;2023-02-28T00:51:52;682.93;;;347.83;;
21034;SDS011;10676;50.848;3.272;2023-02-28T00:54:19;24.23;;;22.00;;
21034;SDS011;10676;50.848;3.272;2023-02-28T00:56:44;22.63;;;20.33;;
21034;SDS011;10676;50.848;3.272;2023-02-28T00:59:13;23.40;;;21.10;;
21034;SDS011;10676;50.848;3.272;2023-02-28T01:01:40;23.93;;;19.17;;
21034;SDS011;10676;50.848;3.272;2023-02-28T01:04:06;22.33;;;19.97;;
21034;SDS011;10676;50.848;3.272;2023-02-28T01:06:32;22.33;;;19.90;;
21034;SDS011;10676;50.848;3.272;2023-02-28T01:08:58;23.20;;;20.83;;
21034;SDS011;10676;50.848;3.272;2023-02-28T01:11:25;23.03;;;20.57;;
21034;SDS011;10676;50.848;3.272;2023-02-28T01:13:51;23.57;;;19.37;;
21034;SDS011;10676;50.848;3.272;2023-02-28T01:16:17;22.63;;;20.30;;
21034;SDS011;10676;50.848;3.272;2023-02-28T01:18:43;23.17;;;20.70;;
21034;SDS011;10676;50.848;3.272;2023-02-28T01:21:10;25.43;;;22.73;;
21034;SDS011;10676;50.848;3.272;2023-02-28T01:23:38;23.20;;;20.80;;
21034;SDS011;10676;50.848;3.272;2023-02-28T01:26:25;22.37;;;20.30;;
21034;SDS011;10676;50.848;3.272;2023-02-28T01:28:51;22.50;;;20.00;;
21034;SDS011;10676;50.848;3.272;2023-02-28T01:31:18;23.87;;;21.40;;
21034;SDS011;10676;50.848;3.272;2023-02-28T01:33:44;22.77;;;20.47;;
21034;SDS011;10676;50.848;3.272;2023-02-28T01:36:14;22.97;;;20.47;;
21034;SDS011;10676;50.848;3.272;2023-02-28T01:38:42;22.40;;;20.07;;
21034;SDS011;10676;50.848;3.272;2023-02-28T01:41:09;25.70;;;20.87;;
21034;SDS011;10676;50.848;3.272;2023-02-28T01:44:02;24.20;;;21.00;;
21034;SDS011;10676;50.848;3.272;2023-02-28T01:46:31;24.90;;;20.70;;
21034;SDS011;10676;50.848;3.272;2023-02-28T01:54:01;23.70;;;19.40;;
21034;SDS011;10676;50.848;3.272;2023-02-28T01:56:32;21.97;;;19.70;;
21034;SDS011;10676;50.848;3.272;2023-02-28T01:59:01;27.27;;;20.90;;
21034;SDS011;10676;50.848;3.272;2023-02-28T02:01:27;24.20;;;21.17;;
21034;SDS011;10676;50.848;3.272;2023-02-28T02:03:55;23.83;;;21.10;;
21034;SDS011;10676;50.848;3.272;2023-02-28T02:06:30;22.90;;;20.57;;
21034;SDS011;10676;50.848;3.272;2023-02-28T02:09:02;22.67;;;20.13;;
21034;SDS011;10676;50.848;3.272;2023-02-28T02:11:28;23.70;;;20.80;;
21034;SDS011;10676;50.848;3.272;2023-02-28T02:21:47;24.43;;;20.90;;
21034;SDS011;10676;50.848;3.272;2023-02-28T02:33:15;27.53;;;23.27;;
21034;SDS011;10676;50.848;3.272;2023-02-28T02:36:24;28.93;;;24.03;;
21034;SDS011;10676;50.848;3.272;2023-02-28T02:41:51;28.73;;;23.17;;
21034;SDS011;10676;50.848;3.272;2023-02-28T02:44:29;27.23;;;22.63;;
21034;SDS011;10676;50.848;3.272;2023-02-28T02:47:04;29.20;;;23.50;;
21034;SDS011;10676;50.848;3.272;2023-02-28T02:49:35;29.40;;;22.57;;
21034;SDS011;10676;50.848;3.272;2023-02-28T02:52:04;32.93;;;23.20;;
21034;SDS011;10676;50.848;3.272;2023-02-28T02:54:34;28.77;;;24.67;;
21034;SDS011;10676;50.848;3.272;2023-02-28T02:57:14;27.10;;;24.23;;
21034;SDS011;10676;50.848;3.272;2023-02-28T02:59:44;27.53;;;24.60;;
21034;SDS011;10676;50.848;3.272;2023-02-28T03:02:11;26.97;;;24.10;;
21034;SDS011;10676;50.848;3.272;2023-02-28T03:04:46;29.70;;;24.13;;
21034;SDS011;10676;50.848;3.272;2023-02-28T03:07:17;27.73;;;24.73;;
21034;SDS011;10676;50.848;3.272;2023-02-28T03:09:53;30.73;;;25.63;;
21034;SDS011;10676;50.848;3.272;2023-02-28T03:12:19;29.13;;;24.33;;
21034;SDS011;10676;50.848;3.272;2023-02-28T03:14:51;31.57;;;24.50;;
21034;SDS011;10676;50.848;3.272;2023-02-28T03:17:38;29.57;;;24.60;;
21034;SDS011;10676;50.848;3.272;2023-02-28T03:20:17;31.80;;;24.57;;
21034;SDS011;10676;50.848;3.272;2023-02-28T03:23:19;29.13;;;24.03;;
21034;SDS011;10676;50.848;3.272;2023-02-28T03:25:56;29.93;;;24.00;;
21034;SDS011;10676;50.848;3.272;2023-02-28T03:28:43;32.43;;;24.10;;
21034;SDS011;10676;50.848;3.272;2023-02-28T03:31:43;32.07;;;24.17;;
21034;SDS011;10676;50.848;3.272;2023-02-28T03:34:15;31.17;;;24.33;;
21034;SDS011;10676;50.848;3.272;2023-02-28T03:36:45;30.13;;;22.50;;
21034;SDS011;10676;50.848;3.272;2023-02-28T03:39:14;29.97;;;21.70;;
21034;SDS011;10676;50.848;3.272;2023-02-28T03:44:18;33.10;;;22.93;;
21034;SDS011;10676;50.848;3.272;2023-02-28T03:46:53;29.10;;;21.27;;
21034;SDS011;10676;50.848;3.272;2023-02-28T03:49:26;31.03;;;22.47;;
21034;SDS011;10676;50.848;3.272;2023-02-28T03:51:58;29.37;;;21.47;;
21034;SDS011;10676;50.848;3.272;2023-02-28T03:54:31;28.00;;;21.20;;
21034;SDS011;10676;50.848;3.272;2023-02-28T04:02:10;33.33;;;22.70;;
21034;SDS011;10676;50.848;3.272;2023-02-28T04:04:35;26.80;;;22.90;;
21034;SDS011;10676;50.848;3.272;2023-02-28T04:07:06;33.40;;;22.67;;
21034;SDS011;10676;50.848;3.272;2023-02-28T04:09:33;36.57;;;23.73;;
21034;SDS011;10676;50.848;3.272;2023-02-28T04:11:59;29.70;;;23.97;;
21034;SDS011;10676;50.848;3.272;2023-02-28T04:14:25;37.23;;;24.13;;
21034;SDS011;10676;50.848;3.272;2023-02-28T04:16:51;31.27;;;22.30;;
21034;SDS011;10676;50.848;3.272;2023-02-28T04:19:17;33.37;;;21.03;;
21034;SDS011;10676;50.848;3.272;2023-02-28T04:21:47;32.70;;;21.50;;
21034;SDS011;10676;50.848;3.272;2023-02-28T04:24:22;32.53;;;22.50;;
21034;SDS011;10676;50.848;3.272;2023-02-28T04:26:50;31.07;;;21.17;;
21034;SDS011;10676;50.848;3.272;2023-02-28T04:29:22;31.30;;;21.57;;
21034;SDS011;10676;50.848;3.272;2023-02-28T04:31:50;28.70;;;21.57;;
21034;SDS011;10676;50.848;3.272;2023-02-28T04:34:18;31.90;;;20.50;;
21034;SDS011;10676;50.848;3.272;2023-02-28T04:36:48;31.43;;;21.37;;
21034;SDS011;10676;50.848;3.272;2023-02-28T04:39:19;30.33;;;21.47;;
21034;SDS011;10676;50.848;3.272;2023-02-28T04:41:46;29.77;;;21.80;;
21034;SDS011;10676;50.848;3.272;2023-02-28T04:44:12;29.37;;;22.03;;
21034;SDS011;10676;50.848;3.272;2023-02-28T04:46:42;28.50;;;21.83;;
21034;SDS011;10676;50.848;3.272;2023-02-28T04:49:11;26.87;;;20.53;;
21034;SDS011;10676;50.848;3.272;2023-02-28T04:51:38;33.20;;;21.77;;
21034;SDS011;10676;50.848;3.272;2023-02-28T04:54:04;29.20;;;21.30;;
21034;SDS011;10676;50.848;3.272;2023-02-28T04:56:29;30.33;;;21.57;;
21034;SDS011;10676;50.848;3.272;2023-02-28T04:58:55;32.57;;;21.67;;
21034;SDS011;10676;50.848;3.272;2023-02-28T05:03:49;29.80;;;22.70;;
21034;SDS011;10676;50.848;3.272;2023-02-28T05:06:16;27.73;;;20.93;;
21034;SDS011;10676;50.848;3.272;2023-02-28T05:08:42;32.97;;;21.80;;
21034;SDS011;10676;50.848;3.272;2023-02-28T05:11:18;28.23;;;20.70;;
21034;SDS011;10676;50.848;3.272;2023-02-28T05:13:44;28.97;;;20.57;;
21034;SDS011;10676;50.848;3.272;2023-02-28T05:16:11;26.43;;;19.63;;
21034;SDS011;10676;50.848;3.272;2023-02-28T05:18:37;27.83;;;20.13;;
21034;SDS011;10676;50.848;3.272;2023-02-28T05:21:02;25.80;;;19.33;;
21034;SDS011;10676;50.848;3.272;2023-02-28T05:23:28;25.03;;;19.40;;
21034;SDS011;10676;50.848;3.272;2023-02-28T05:25:54;24.67;;;18.37;;
21034;SDS011;10676;50.848;3.272;2023-02-28T05:28:20;22.93;;;19.33;;
21034;SDS011;10676;50.848;3.272;2023-02-28T05:30:46;25.73;;;19.80;;
21034;SDS011;10676;50.848;3.272;2023-02-28T05:33:12;22.93;;;19.77;;
21034;SDS011;10676;50.848;3.272;2023-02-28T05:35:39;23.53;;;18.77;;
21034;SDS011;10676;50.848;3.272;2023-02-28T05:38:06;27.40;;;20.27;;
21034;SDS011;10676;50.848;3.272;2023-02-28T05:40:31;24.93;;;20.20;;
21034;SDS011;10676;50.848;3.272;2023-02-28T05:42:57;25.23;;;20.00;;
21034;SDS011;10676;50.848;3.272;2023-02-28T05:45:23;26.97;;;20.00;;
21034;SDS011;10676;50.848;3.272;2023-02-28T05:47:48;24.33;;;20.63;;
21034;SDS011;10676;50.848;3.272;2023-02-28T05:50:17;23.17;;;20.10;;
21034;SDS011;10676;50.848;3.272;2023-02-28T05:52:43;26.40;;;21.07;;
21034;SDS011;10676;50.848;3.272;2023-02-28T05:55:09;26.93;;;21.87;;
21034;SDS011;10676;50.848;3.272;2023-02-28T05:57:34;25.50;;;20.47;;
21034;SDS011;10676;50.848;3.272;2023-02-28T06:00:00;23.50;;;20.00;;
21034;SDS011;10676;50.848;3.272;2023-02-28T06:02:26;25.40;;;19.80;;
21034;SDS011;10676;50.848;3.272;2023-02-28T06:04:53;24.50;;;20.43;;
21034;SDS011;10676;50.848;3.272;2023-02-28T06:07:18;26.20;;;20.60;;
21034;SDS011;10676;50.848;3.272;2023-02-28T06:09:44;28.67;;;20.57;;
21034;SDS011;10676;50.848;3.272;2023-02-28T06:12:10;25.90;;;21.20;;
21034;SDS011;10676;50.848;3.272;2023-02-28T06:14:35;30.40;;;21.13;;
21034;SDS011;10676;50.848;3.272;2023-02-28T06:17:01;26.23;;;21.63;;
21034;SDS011;10676;50.848;3.272;2023-02-28T06:19:28;26.77;;;21.40;;
21034;SDS011;10676;50.848;3.272;2023-02-28T06:21:55;27.80;;;22.20;;
21034;SDS011;10676;50.848;3.272;2023-02-28T06:24:22;27.87;;;22.23;;
21034;SDS011;10676;50.848;3.272;2023-02-28T06:26:49;25.07;;;19.90;;
21034;SDS011;10676;50.848;3.272;2023-02-28T06:29:15;25.77;;;20.50;;
21034;SDS011;10676;50.848;3.272;2023-02-28T06:31:44;26.87;;;20.20;;
21034;SDS011;10676;50.848;3.272;2023-02-28T06:34:11;23.50;;;20.27;;
21034;SDS011;10676;50.848;3.272;2023-02-28T06:36:37;22.67;;;19.47;;
21034;SDS011;10676;50.848;3.272;2023-02-28T06:39:04;27.73;;;20.83;;
21034;SDS011;10676;50.848;3.272;2023-02-28T06:41:30;31.90;;;21.80;;
21034;SDS011;10676;50.848;3.272;2023-02-28T06:43:56;36.27;;;20.73;;
21034;SDS011;10676;50.848;3.272;2023-02-28T06:46:22;30.70;;;19.17;;
21034;SDS011;10676;50.848;3.272;2023-02-28T06:48:47;25.73;;;20.80;;
21034;SDS011;10676;50.848;3.272;2023-02-28T06:51:17;23.97;;;19.00;;
21034;SDS011;10676;50.848;3.272;2023-02-28T06:53:47;23.67;;;19.23;;
21034;SDS011;10676;50.848;3.272;2023-02-28T06:56:13;22.33;;;19.83;;
21034;SDS011;10676;50.848;3.272;2023-02-28T06:58:40;23.03;;;18.00;;
21034;SDS011;10676;50.848;3.272;2023-02-28T07:01:07;25.03;;;19.97;;
21034;SDS011;10676;50.848;3.272;2023-02-28T07:03:34;21.63;;;19.40;;
21034;SDS011;10676;50.848;3.272;2023-02-28T07:06:00;26.30;;;20.27;;
21034;SDS011;10676;50.848;3.272;2023-02-28T07:08:26;24.40;;;21.77;;
21034;SDS011;10676;50.848;3.272;2023-02-28T07:10:55;26.30;;;21.63;;
21034;SDS011;10676;50.848;3.272;2023-02-28T07:13:22;29.30;;;23.30;;
21034;SDS011;10676;50.848;3.272;2023-02-28T07:15:57;35.60;;;25.70;;
21034;SDS011;10676;50.848;3.272;2023-02-28T07:18:28;31.70;;;26.37;;
21034;SDS011;10676;50.848;3.272;2023-02-28T07:20:53;31.37;;;24.33;;
21034;SDS011;10676;50.848;3.272;2023-02-28T07:23:19;30.87;;;26.07;;
21034;SDS011;10676;50.848;3.272;2023-02-28T07:25:45;33.23;;;26.13;;
21034;SDS011;10676;50.848;3.272;2023-02-28T07:28:12;35.40;;;25.60;;
21034;SDS011;10676;50.848;3.272;2023-02-28T07:30:38;27.97;;;23.60;;
21034;SDS011;10676;50.848;3.272;2023-02-28T07:33:04;29.37;;;23.47;;
21034;SDS011;10676;50.848;3.272;2023-02-28T07:35:30;32.40;;;23.57;;
21034;SDS011;10676;50.848;3.272;2023-02-28T07:37:57;35.37;;;25.30;;
21034;SDS011;10676;50.848;3.272;2023-02-28T07:40:23;27.83;;;23.83;;
21034;SDS011;10676;50.848;3.272;2023-02-28T07:42:49;33.37;;;25.33;;
21034;SDS011;10676;50.848;3.272;2023-02-28T07:45:15;1999.90;;;999.90;;
21034;SDS011;10676;50.848;3.272;2023-02-28T07:47:41;1999.90;;;999.90;;
21034;SDS011;10676;50.848;3.272;2023-02-28T07:50:08;1999.90;;;999.90;;
21034;SDS011;10676;50.848;3.272;2023-02-28T07:52:36;1999.90;;;999.90;;
21034;SDS011;10676;50.848;3.272;2023-02-28T07:55:02;1999.90;;;999.90;;
21034;SDS011;10676;50.848;3.272;2023-02-28T07:57:29;1999.90;;;999.90;;
21034;SDS011;10676;50.848;3.272;2023-02-28T07:59:55;1999.90;;;999.90;;
21034;SDS011;10676;50.848;3.272;2023-02-28T08:02:21;1999.90;;;999.90;;
21034;SDS011;10676;50.848;3.272;2023-02-28T08:04:47;1999.90;;;999.90;;
21034;SDS011;10676;50.848;3.272;2023-02-28T08:07:13;1999.90;;;999.90;;
21034;SDS011;10676;50.848;3.272;2023-02-28T08:09:39;1999.90;;;999.90;;
21034;SDS011;10676;50.848;3.272;2023-02-28T08:12:05;1999.90;;;999.90;;
21034;SDS011;10676;50.848;3.272;2023-02-28T08:14:32;1999.90;;;999.90;;
21034;SDS011;10676;50.848;3.272;2023-02-28T08:16:58;1999.90;;;999.90;;
21034;SDS011;10676;50.848;3.272;2023-02-28T08:19:24;1999.90;;;999.90;;
21034;SDS011;10676;50.848;3.272;2023-02-28T08:21:49;1999.90;;;999.90;;
21034;SDS011;10676;50.848;3.272;2023-02-28T08:24:15;1999.90;;;999.90;;
21034;SDS011;10676;50.848;3.272;2023-02-28T08:26:41;1999.90;;;999.90;;
21034;SDS011;10676;50.848;3.272;2023-02-28T08:29:06;1999.90;;;999.90;;
21034;SDS011;10676;50.848;3.272;2023-02-28T08:31:32;1999.90;;;999.90;;
21034;SDS011;10676;50.848;3.272;2023-02-28T08:33:58;1999.90;;;999.90;;
21034;SDS011;10676;50.848;3.272;2023-02-28T08:36:24;1999.90;;;999.90;;
21034;SDS011;10676;50.848;3.272;2023-02-28T08:38:51;1999.90;;;999.90;;
21034;SDS011;10676;50.848;3.272;2023-02-28T08:41:17;1999.90;;;999.90;;
21034;SDS011;10676;50.848;3.272;2023-02-28T08:43:43;1999.90;;;999.90;;
21034;SDS011;10676;50.848;3.272;2023-02-28T08:46:10;1999.90;;;999.90;;
21034;SDS011;10676;50.848;3.272;2023-02-28T08:48:38;1999.90;;;999.90;;
21034;SDS011;10676;50.848;3.272;2023-02-28T08:53:34;1999.90;;;999.90;;
21034;SDS011;10676;50.848;3.272;2023-02-28T08:56:01;1999.90;;;999.90;;
21034;SDS011;10676;50.848;3.272;2023-02-28T08:58:30;1999.90;;;999.90;;
21034;SDS011;10676;50.848;3.272;2023-02-28T09:00:55;1999.90;;;999.90;;
21034;SDS011;10676;50.848;3.272;2023-02-28T09:03:21;1999.90;;;999.90;;
21034;SDS011;10676;50.848;3.272;2023-02-28T09:05:55;1999.90;;;999.90;;
21034;SDS011;10676;50.848;3.272;2023-02-28T09:08:22;1999.90;;;999.90;;
21034;SDS011;10676;50.848;3.272;2023-02-28T09:10:48;1999.90;;;999.90;;
21034;SDS011;10676;50.848;3.272;2023-02-28T09:13:14;1999.90;;;999.90;;
21034;SDS011;10676;50.848;3.272;2023-02-28T09:15:39;1999.90;;;999.90;;
21034;SDS011;10676;50.848;3.272;2023-02-28T09:18:05;1999.90;;;999.90;;
21034;SDS011;10676;50.848;3.272;2023-02-28T09:20:31;1999.90;;;999.90;;
21034;SDS011;10676;50.848;3.272;2023-02-28T09:22:56;1999.90;;;999.90;;
21034;SDS011;10676;50.848;3.272;2023-02-28T09:25:22;1999.90;;;999.90;;
21034;SDS011;10676;50.848;3.272;2023-02-28T09:27:48;1999.90;;;999.90;;
21034;SDS011;10676;50.848;3.272;2023-02-28T09:30:13;1999.90;;;999.90;;
21034;SDS011;10676;50.848;3.272;2023-02-28T09:32:39;1999.90;;;999.90;;
21034;SDS011;10676;50.848;3.272;2023-02-28T09:35:05;1999.90;;;999.90;;
21034;SDS011;10676;50.848;3.272;2023-02-28T09:37:31;1999.90;;;999.90;;
21034;SDS011;10676;50.848;3.272;2023-02-28T09:39:57;1999.90;;;999.90;;
21034;SDS011;10676;50.848;3.272;2023-02-28T09:42:32;1999.90;;;999.90;;
21034;SDS011;10676;50.848;3.272;2023-02-28T09:45:05;1999.90;;;999.90;;
21034;SDS011;10676;50.848;3.272;2023-02-28T09:47:40;1999.90;;;999.90;;
21034;SDS011;10676;50.848;3.272;2023-02-28T09:52:44;1999.90;;;999.90;;
21034;SDS011;10676;50.848;3.272;2023-02-28T09:55:35;1999.90;;;999.90;;
21034;SDS011;10676;50.848;3.272;2023-02-28T09:58:02;1999.90;;;999.90;;
21034;SDS011;10676;50.848;3.272;2023-02-28T10:06:17;1999.90;;;999.90;;
21034;SDS011;10676;50.848;3.272;2023-02-28T10:09:04;1999.90;;;999.90;;
21034;SDS011;10676;50.848;3.272;2023-02-28T10:11:38;1999.90;;;999.90;;
21034;SDS011;10676;50.848;3.272;2023-02-28T10:19:22;1999.90;;;999.90;;
21034;SDS011;10676;50.848;3.272;2023-02-28T10:22:05;1999.90;;;999.90;;
21034;SDS011;10676;50.848;3.272;2023-02-28T10:24:37;1999.90;;;999.90;;
21034;SDS011;10676;50.848;3.272;2023-02-28T10:27:14;1999.90;;;999.90;;
21034;SDS011;10676;50.848;3.272;2023-02-28T10:29:44;1999.90;;;999.90;;
21034;SDS011;10676;50.848;3.272;2023-02-28T10:32:21;1999.90;;;999.90;;
21034;SDS011;10676;50.848;3.272;2023-02-28T10:34:55;1999.90;;;999.90;;
21034;SDS011;10676;50.848;3.272;2023-02-28T10:37:31;1999.90;;;999.90;;
21034;SDS011;10676;50.848;3.272;2023-02-28T10:39:57;1999.90;;;999.90;;
21034;SDS011;10676;50.848;3.272;2023-02-28T10:48:00;1999.90;;;999.90;;
21034;SDS011;10676;50.848;3.272;2023-02-28T10:50:35;1999.90;;;999.90;;
21034;SDS011;10676;50.848;3.272;2023-02-28T11:01:23;1999.90;;;999.90;;
21034;SDS011;10676;50.848;3.272;2023-02-28T11:04:49;1999.90;;;999.90;;
21034;SDS011;10676;50.848;3.272;2023-02-28T11:09:55;1999.90;;;999.90;;
21034;SDS011;10676;50.848;3.272;2023-02-28T11:12:24;1999.90;;;999.90;;
21034;SDS011;10676;50.848;3.272;2023-02-28T11:14:52;1999.90;;;999.90;;
21034;SDS011;10676;50.848;3.272;2023-02-28T11:17:27;1999.90;;;999.90;;
21034;SDS011;10676;50.848;3.272;2023-02-28T11:19:58;1999.90;;;999.90;;
21034;SDS011;10676;50.848;3.272;2023-02-28T11:22:29;1999.90;;;999.90;;
21034;SDS011;10676;50.848;3.272;2023-02-28T11:25:01;1999.90;;;999.90;;
21034;SDS011;10676;50.848;3.272;2023-02-28T11:27:43;1999.90;;;999.90;;
21034;SDS011;10676;50.848;3.272;2023-02-28T11:32:55;1999.90;;;999.90;;
21034;SDS011;10676;50.848;3.272;2023-02-28T11:35:23;1999.90;;;999.90;;
21034;SDS011;10676;50.848;3.272;2023-02-28T11:38:01;1999.90;;;999.90;;
21034;SDS011;10676;50.848;3.272;2023-02-28T11:43:08;1999.90;;;999.90;;
21034;SDS011;10676;50.848;3.272;2023-02-28T11:46:06;1999.90;;;999.90;;
21034;SDS011;10676;50.848;3.272;2023-02-28T11:48:55;1999.90;;;999.90;;
21034;SDS011;10676;50.848;3.272;2023-02-28T11:51:47;1999.90;;;999.90;;
21034;SDS011;10676;50.848;3.272;2023-02-28T11:57:00;1999.90;;;999.90;;
21034;SDS011;10676;50.848;3.272;2023-02-28T12:10:29;1999.90;;;999.90;;
21034;SDS011;10676;50.848;3.272;2023-02-28T12:13:07;1999.90;;;999.90;;
21034;SDS011;10676;50.848;3.272;2023-02-28T12:18:40;1999.90;;;999.90;;
21034;SDS011;10676;50.848;3.272;2023-02-28T12:29:02;1999.90;;;999.90;;
21034;SDS011;10676;50.848;3.272;2023-02-28T12:31:35;1999.90;;;999.90;;
21034;SDS011;10676;50.848;3.272;2023-02-28T12:34:07;1999.90;;;999.90;;
21034;SDS011;10676;50.848;3.272;2023-02-28T12:36:38;1999.90;;;999.90;;
21034;SDS011;10676;50.848;3.272;2023-02-28T12:39:14;1999.90;;;999.90;;
21034;SDS011;10676;50.848;3.272;2023-02-28T12:44:13;1999.90;;;999.90;;
21034;SDS011;10676;50.848;3.272;2023-02-28T12:46:47;1999.90;;;999.90;;
21034;SDS011;10676;50.848;3.272;2023-02-28T12:49:16;1999.90;;;999.90;;
21034;SDS011;10676;50.848;3.272;2023-02-28T12:51:46;1999.90;;;999.90;;
21034;SDS011;10676;50.848;3.272;2023-02-28T12:54:16;1999.90;;;999.90;;
21034;SDS011;10676;50.848;3.272;2023-02-28T12:59:27;1999.90;;;999.90;;
21034;SDS011;10676;50.848;3.272;2023-02-28T13:09:53;1999.90;;;999.90;;
21034;SDS011;10676;50.848;3.272;2023-02-28T13:12:21;1999.90;;;999.90;;
21034;SDS011;10676;50.848;3.272;2023-02-28T13:14:47;1999.90;;;999.90;;
21034;SDS011;10676;50.848;3.272;2023-02-28T13:17:21;1999.90;;;999.90;;
21034;SDS011;10676;50.848;3.272;2023-02-28T13:24:54;1999.90;;;999.90;;
21034;SDS011;10676;50.848;3.272;2023-02-28T13:29:51;1999.90;;;999.90;;
21034;SDS011;10676;50.848;3.272;2023-02-28T13:32:34;1999.90;;;999.90;;
21034;SDS011;10676;50.848;3.272;2023-02-28T13:37:32;1999.90;;;999.90;;
21034;SDS011;10676;50.848;3.272;2023-02-28T13:55:42;1999.90;;;999.90;;
21034;SDS011;10676;50.848;3.272;2023-02-28T14:07:11;1999.90;;;999.90;;
21034;SDS011;10676;50.848;3.272;2023-02-28T14:09:49;1999.90;;;999.90;;
21034;SDS011;10676;50.848;3.272;2023-02-28T14:18:04;1999.90;;;999.90;;
21034;SDS011;10676;50.848;3.272;2023-02-28T14:20:48;1999.90;;;999.90;;
21034;SDS011;10676;50.848;3.272;2023-02-28T14:23:39;1999.90;;;999.90;;
21034;SDS011;10676;50.848;3.272;2023-02-28T14:26:19;1999.90;;;999.90;;
21034;SDS011;10676;50.848;3.272;2023-02-28T14:31:29;1999.90;;;999.90;;
21034;SDS011;10676;50.848;3.272;2023-02-28T14:36:44;1999.90;;;999.90;;
21034;SDS011;10676;50.848;3.272;2023-02-28T14:39:14;1999.90;;;999.90;;
21034;SDS011;10676;50.848;3.272;2023-02-28T14:41:42;1999.90;;;999.90;;
21034;SDS011;10676;50.848;3.272;2023-02-28T14:44:27;1999.90;;;999.90;;
21034;SDS011;10676;50.848;3.272;2023-02-28T14:46:53;1999.90;;;999.90;;
21034;SDS011;10676;50.848;3.272;2023-02-28T14:49:31;1999.90;;;999.90;;
21034;SDS011;10676;50.848;3.272;2023-02-28T14:52:14;1999.90;;;999.90;;
21034;SDS011;10676;50.848;3.272;2023-02-28T14:54:44;1999.90;;;999.90;;
21034;SDS011;10676;50.848;3.272;2023-02-28T15:02:52;1999.90;;;999.90;;
21034;SDS011;10676;50.848;3.272;2023-02-28T15:05:28;1999.90;;;999.90;;
21034;SDS011;10676;50.848;3.272;2023-02-28T15:10:29;1999.90;;;999.90;;
21034;SDS011;10676;50.848;3.272;2023-02-28T15:15:26;1999.90;;;999.90;;
21034;SDS011;10676;50.848;3.272;2023-02-28T15:18:04;1999.90;;;999.90;;
21034;SDS011;10676;50.848;3.272;2023-02-28T15:20:32;1999.90;;;999.90;;
21034;SDS011;10676;50.848;3.272;2023-02-28T15:23:00;1999.90;;;999.90;;
21034;SDS011;10676;50.848;3.272;2023-02-28T15:25:26;1999.90;;;999.90;;
21034;SDS011;10676;50.848;3.272;2023-02-28T15:27:53;1999.90;;;999.90;;
21034;SDS011;10676;50.848;3.272;2023-02-28T15:30:25;1999.90;;;999.90;;
21034;SDS011;10676;50.848;3.272;2023-02-28T15:35:43;1999.90;;;999.90;;
21034;SDS011;10676;50.848;3.272;2023-02-28T15:38:22;1999.90;;;999.90;;
21034;SDS011;10676;50.848;3.272;2023-02-28T15:40:51;1999.90;;;999.90;;
21034;SDS011;10676;50.848;3.272;2023-02-28T15:43:31;1999.90;;;999.90;;
21034;SDS011;10676;50.848;3.272;2023-02-28T15:46:05;1999.90;;;999.90;;
21034;SDS011;10676;50.848;3.272;2023-02-28T15:48:36;1999.90;;;999.90;;
21034;SDS011;10676;50.848;3.272;2023-02-28T15:51:46;1999.90;;;999.90;;
21034;SDS011;10676;50.848;3.272;2023-02-28T15:54:06;1999.90;;;999.90;;
21034;SDS011;10676;50.848;3.272;2023-02-28T15:56:34;1999.90;;;999.90;;
21034;SDS011;10676;50.848;3.272;2023-02-28T15:59:07;1999.90;;;999.90;;
21034;SDS011;10676;50.848;3.272;2023-02-28T16:01:41;1999.90;;;999.90;;
21034;SDS011;10676;50.848;3.272;2023-02-28T16:04:17;1999.90;;;999.90;;
21034;SDS011;10676;50.848;3.272;2023-02-28T16:09:26;1999.90;;;999.90;;
21034;SDS011;10676;50.848;3.272;2023-02-28T16:11:53;1999.90;;;999.90;;
21034;SDS011;10676;50.848;3.272;2023-02-28T16:14:22;1999.90;;;999.90;;
21034;SDS011;10676;50.848;3.272;2023-02-28T16:16:51;1999.90;;;999.90;;
21034;SDS011;10676;50.848;3.272;2023-02-28T16:19:18;1999.90;;;999.90;;
21034;SDS011;10676;50.848;3.272;2023-02-28T16:21:44;1999.90;;;999.90;;
21034;SDS011;10676;50.848;3.272;2023-02-28T16:24:11;1999.90;;;999.90;;
21034;SDS011;10676;50.848;3.272;2023-02-28T16:26:37;1999.90;;;999.90;;
21034;SDS011;10676;50.848;3.272;2023-02-28T16:29:06;1999.90;;;999.90;;
21034;SDS011;10676;50.848;3.272;2023-02-28T16:31:34;1999.90;;;999.90;;
21034;SDS011;10676;50.848;3.272;2023-02-28T16:34:02;1999.90;;;999.90;;
21034;SDS011;10676;50.848;3.272;2023-02-28T16:36:28;1999.90;;;999.90;;
21034;SDS011;10676;50.848;3.272;2023-02-28T16:38:54;1999.90;;;999.90;;
21034;SDS011;10676;50.848;3.272;2023-02-28T16:41:21;1999.90;;;999.90;;
21034;SDS011;10676;50.848;3.272;2023-02-28T16:43:51;1999.90;;;999.90;;
21034;SDS011;10676;50.848;3.272;2023-02-28T16:46:19;1999.90;;;999.90;;
21034;SDS011;10676;50.848;3.272;2023-02-28T16:48:46;1999.90;;;999.90;;
21034;SDS011;10676;50.848;3.272;2023-02-28T16:51:16;1999.90;;;999.90;;
21034;SDS011;10676;50.848;3.272;2023-02-28T16:53:43;1999.90;;;999.90;;
21034;SDS011;10676;50.848;3.272;2023-02-28T16:56:14;1999.90;;;999.90;;
21034;SDS011;10676;50.848;3.272;2023-02-28T16:58:45;1999.90;;;999.90;;
21034;SDS011;10676;50.848;3.272;2023-02-28T17:01:12;1999.90;;;999.90;;
21034;SDS011;10676;50.848;3.272;2023-02-28T17:03:37;1999.90;;;999.90;;
21034;SDS011;10676;50.848;3.272;2023-02-28T17:06:05;1999.90;;;999.90;;
21034;SDS011;10676;50.848;3.272;2023-02-28T17:08:40;1999.90;;;999.90;;